aviador You're here:

OMAA Decoded Metar

ABU DHABI in UNITED ARAB EMIRATES
Report Time2017-08-18 16:00:00
UTC Time2017-08-18 16:28:06
Flight Rules vfr VFR
Wind320° at 04 kt
W.Decomp.*RWY 31: 4.0 kt HW 0.6 kt RCW
W.Rank320° ranks 3
Current wind is below 320° avg. (10.4)
Visibility9999 m
Phenomena:N/A
Clouds:N/A
Expected CloudBase > 3,600 ft AGL from Temp-Dew spread
CeilingNone
Temp35°C (ISA +20)
Dew Point26°C (60% RH)
Heat Index45.1°C
QNH0999 hPa
Density Alt3,291 ft
Elevation89 ft
Report Wrong Elevation
Raw Report
METAR OMAA 181600Z 32004KT CAVOK 35/26 Q0999 NOSIG=

Extra information for OMAA:More info

Metar Taf Metar & Taf Last 4 Metars F.Rules Stats Wind Profile Meteogram Temp Stats Airport Information Weather charts Add Link Nearby VenuesMetar ALERT Operation Metar Decoded Social comments